sensor_id;sensor_type;location;lat;lon;timestamp;noise_LAeq;noise_LA_min;noise_LA_max;noise_LA01;noise_LA95
69609;Laerm;56815;52.320;4.858;2023-07-31T00:00:00;39.57;36.66;47.18;;
69609;Laerm;56815;52.320;4.858;2023-07-31T00:00:10;43.51;35.91;63.33;;
69609;Laerm;56815;52.320;4.858;2023-07-31T00:00:21;46.53;35.38;67.93;;
69609;Laerm;56815;52.320;4.858;2023-07-31T00:00:31;41.45;35.71;59.39;;
69609;Laerm;56815;52.320;4.858;2023-07-31T00:00:41;41.76;36.12;58.22;;
69609;Laerm;56815;52.320;4.858;2023-07-31T00:00:52;42.07;37.07;54.29;;
69609;Laerm;56815;52.320;4.858;2023-07-31T00:01:02;43.76;37.34;56.70;;
69609;Laerm;56815;52.320;4.858;2023-07-31T00:01:12;44.21;36.88;66.10;;
69609;Laerm;56815;52.320;4.858;2023-07-31T00:01:22;39.30;36.28;49.65;;
69609;Laerm;56815;52.320;4.858;2023-07-31T00:01:33;41.35;37.20;55.90;;
69609;Laerm;56815;52.320;4.858;2023-07-31T00:01:43;42.15;37.80;58.82;;
69609;Laerm;56815;52.320;4.858;2023-07-31T00:01:53;40.26;37.15;50.60;;
69609;Laerm;56815;52.320;4.858;2023-07-31T00:02:04;43.40;37.60;58.72;;
69609;Laerm;56815;52.320;4.858;2023-07-31T00:02:14;42.18;37.75;55.42;;
69609;Laerm;56815;52.320;4.858;2023-07-31T00:02:24;44.56;36.30;67.30;;
69609;Laerm;56815;52.320;4.858;2023-07-31T00:02:35;44.53;36.32;64.32;;
69609;Laerm;56815;52.320;4.858;2023-07-31T00:02:45;44.78;38.11;61.58;;
69609;Laerm;56815;52.320;4.858;2023-07-31T00:02:55;43.35;37.71;62.60;;
69609;Laerm;56815;52.320;4.858;2023-07-31T00:03:05;41.70;37.19;57.45;;
69609;Laerm;56815;52.320;4.858;2023-07-31T00:03:16;45.24;36.47;67.27;;
69609;Laerm;56815;52.320;4.858;2023-07-31T00:03:26;41.36;37.27;53.99;;
69609;Laerm;56815;52.320;4.858;2023-07-31T00:03:36;43.54;38.74;58.09;;
69609;Laerm;56815;52.320;4.858;2023-07-31T00:03:46;42.67;39.61;52.57;;
69609;Laerm;56815;52.320;4.858;2023-07-31T00:03:57;41.94;39.16;54.07;;
69609;Laerm;56815;52.320;4.858;2023-07-31T00:04:07;43.89;39.51;61.24;;
69609;Laerm;56815;52.320;4.858;2023-07-31T00:04:17;42.59;39.37;51.72;;
69609;Laerm;56815;52.320;4.858;2023-07-31T00:04:28;43.47;39.79;57.11;;
69609;Laerm;56815;52.320;4.858;2023-07-31T00:04:38;47.42;39.60;68.90;;
69609;Laerm;56815;52.320;4.858;2023-07-31T00:04:48;43.42;40.36;53.08;;
69609;Laerm;56815;52.320;4.858;2023-07-31T00:04:59;45.68;40.70;63.32;;
69609;Laerm;56815;52.320;4.858;2023-07-31T00:05:09;45.46;41.69;58.27;;
69609;Laerm;56815;52.320;4.858;2023-07-31T00:05:20;44.75;42.06;52.59;;
69609;Laerm;56815;52.320;4.858;2023-07-31T00:05:30;46.27;42.83;61.99;;
69609;Laerm;56815;52.320;4.858;2023-07-31T00:05:40;47.33;41.44;68.28;;
69609;Laerm;56815;52.320;4.858;2023-07-31T00:05:50;43.88;40.23;54.34;;
69609;Laerm;56815;52.320;4.858;2023-07-31T00:06:01;46.50;40.75;60.70;;
69609;Laerm;56815;52.320;4.858;2023-07-31T00:06:11;47.50;42.08;63.00;;
69609;Laerm;56815;52.320;4.858;2023-07-31T00:06:21;44.95;41.37;59.61;;
69609;Laerm;56815;52.320;4.858;2023-07-31T00:06:32;46.59;40.08;66.49;;
69609;Laerm;56815;52.320;4.858;2023-07-31T00:06:42;44.28;40.27;56.00;;
69609;Laerm;56815;52.320;4.858;2023-07-31T00:06:52;47.81;40.00;69.11;;
69609;Laerm;56815;52.320;4.858;2023-07-31T00:07:02;43.92;39.25;60.99;;
69609;Laerm;56815;52.320;4.858;2023-07-31T00:07:14;43.38;39.40;55.59;;
69609;Laerm;56815;52.320;4.858;2023-07-31T00:07:24;42.57;38.84;53.00;;
69609;Laerm;56815;52.320;4.858;2023-07-31T00:07:35;43.73;38.45;57.91;;
69609;Laerm;56815;52.320;4.858;2023-07-31T00:07:45;44.38;39.31;57.14;;
69609;Laerm;56815;52.320;4.858;2023-07-31T00:07:55;43.30;39.11;56.55;;
69609;Laerm;56815;52.320;4.858;2023-07-31T00:08:05;46.83;38.87;68.69;;
69609;Laerm;56815;52.320;4.858;2023-07-31T00:08:16;46.38;39.04;66.79;;
69609;Laerm;56815;52.320;4.858;2023-07-31T00:08:26;44.42;38.11;59.59;;
69609;Laerm;56815;52.320;4.858;2023-07-31T00:08:36;41.39;37.53;49.66;;
69609;Laerm;56815;52.320;4.858;2023-07-31T00:08:46;44.13;36.91;59.83;;
69609;Laerm;56815;52.320;4.858;2023-07-31T00:08:57;47.17;37.87;69.19;;
69609;Laerm;56815;52.320;4.858;2023-07-31T00:09:07;45.88;39.62;61.69;;
69609;Laerm;56815;52.320;4.858;2023-07-31T00:09:17;43.19;39.08;57.14;;
69609;Laerm;56815;52.320;4.858;2023-07-31T00:09:27;45.06;38.77;61.39;;
69609;Laerm;56815;52.320;4.858;2023-07-31T00:09:38;45.90;41.37;56.02;;
69609;Laerm;56815;52.320;4.858;2023-07-31T00:09:48;47.93;42.85;63.30;;
69609;Laerm;56815;52.320;4.858;2023-07-31T00:09:58;49.31;42.59;70.43;;
69609;Laerm;56815;52.320;4.858;2023-07-31T00:10:09;46.83;43.18;61.91;;
69609;Laerm;56815;52.320;4.858;2023-07-31T00:10:19;48.23;44.15;65.14;;
69609;Laerm;56815;52.320;4.858;2023-07-31T00:10:29;47.27;44.16;55.91;;
69609;Laerm;56815;52.320;4.858;2023-07-31T00:10:40;48.01;45.60;55.54;;
69609;Laerm;56815;52.320;4.858;2023-07-31T00:10:53;48.78;45.72;57.68;;
69609;Laerm;56815;52.320;4.858;2023-07-31T00:11:03;49.47;45.83;61.63;;
69609;Laerm;56815;52.320;4.858;2023-07-31T00:11:13;50.08;46.39;65.29;;
69609;Laerm;56815;52.320;4.858;2023-07-31T00:11:24;48.99;45.87;60.31;;
69609;Laerm;56815;52.320;4.858;2023-07-31T00:11:34;49.96;45.27;62.29;;
69609;Laerm;56815;52.320;4.858;2023-07-31T00:11:45;49.10;45.12;55.89;;
69609;Laerm;56815;52.320;4.858;2023-07-31T00:11:55;50.46;46.25;65.12;;
69609;Laerm;56815;52.320;4.858;2023-07-31T00:12:06;51.25;47.68;60.30;;
69609;Laerm;56815;52.320;4.858;2023-07-31T00:12:16;52.77;47.93;67.73;;
69609;Laerm;56815;52.320;4.858;2023-07-31T00:12:26;53.65;49.46;67.60;;
69609;Laerm;56815;52.320;4.858;2023-07-31T00:12:37;53.27;49.48;63.96;;
69609;Laerm;56815;52.320;4.858;2023-07-31T00:12:48;51.85;48.81;66.12;;
69609;Laerm;56815;52.320;4.858;2023-07-31T00:12:58;52.06;49.17;62.07;;
69609;Laerm;56815;52.320;4.858;2023-07-31T00:13:08;54.44;49.84;64.47;;
69609;Laerm;56815;52.320;4.858;2023-07-31T00:13:19;52.94;49.35;61.07;;
69609;Laerm;56815;52.320;4.858;2023-07-31T00:13:29;52.59;45.57;67.62;;
69609;Laerm;56815;52.320;4.858;2023-07-31T00:13:39;51.15;45.60;67.03;;
69609;Laerm;56815;52.320;4.858;2023-07-31T00:13:49;52.53;46.44;68.33;;
69609;Laerm;56815;52.320;4.858;2023-07-31T00:14:00;51.31;47.01;68.77;;
69609;Laerm;56815;52.320;4.858;2023-07-31T00:14:10;50.55;45.06;65.53;;
69609;Laerm;56815;52.320;4.858;2023-07-31T00:14:20;49.97;44.59;66.07;;
69609;Laerm;56815;52.320;4.858;2023-07-31T00:14:31;51.47;45.98;62.51;;
69609;Laerm;56815;52.320;4.858;2023-07-31T00:14:41;51.77;46.71;65.62;;
69609;Laerm;56815;52.320;4.858;2023-07-31T00:14:51;50.79;45.49;64.16;;
69609;Laerm;56815;52.320;4.858;2023-07-31T00:15:02;49.84;45.80;60.07;;
69609;Laerm;56815;52.320;4.858;2023-07-31T00:15:13;52.28;44.50;68.63;;
69609;Laerm;56815;52.320;4.858;2023-07-31T00:15:23;49.93;42.92;66.49;;
69609;Laerm;56815;52.320;4.858;2023-07-31T00:15:33;48.46;40.35;63.59;;
69609;Laerm;56815;52.320;4.858;2023-07-31T00:15:44;50.20;39.56;65.99;;
69609;Laerm;56815;52.320;4.858;2023-07-31T00:15:54;49.65;42.67;63.50;;
69609;Laerm;56815;52.320;4.858;2023-07-31T00:16:04;49.31;40.17;65.07;;
69609;Laerm;56815;52.320;4.858;2023-07-31T00:16:15;49.47;38.32;65.38;;
69609;Laerm;56815;52.320;4.858;2023-07-31T00:16:25;49.06;37.82;65.90;;
69609;Laerm;56815;52.320;4.858;2023-07-31T00:16:35;47.08;37.62;61.16;;
69609;Laerm;56815;52.320;4.858;2023-07-31T00:16:45;47.23;36.57;64.24;;
69609;Laerm;56815;52.320;4.858;2023-07-31T00:16:56;48.90;37.97;65.66;;
69609;Laerm;56815;52.320;4.858;2023-07-31T00:17:06;47.91;37.85;63.12;;
69609;Laerm;56815;52.320;4.858;2023-07-31T00:17:16;47.43;37.05;65.33;;
69609;Laerm;56815;52.320;4.858;2023-07-31T00:17:27;50.88;36.40;71.75;;
69609;Laerm;56815;52.320;4.858;2023-07-31T00:17:37;48.72;36.39;68.63;;
69609;Laerm;56815;52.320;4.858;2023-07-31T00:17:47;48.40;36.49;68.29;;
69609;Laerm;56815;52.320;4.858;2023-07-31T00:17:58;49.73;37.05;67.69;;
69609;Laerm;56815;52.320;4.858;2023-07-31T00:18:08;45.91;36.53;63.46;;
69609;Laerm;56815;52.320;4.858;2023-07-31T00:18:18;47.36;36.33;66.28;;
69609;Laerm;56815;52.320;4.858;2023-07-31T00:18:29;48.53;35.91;67.37;;
69609;Laerm;56815;52.320;4.858;2023-07-31T00:18:39;44.94;34.61;61.55;;
69609;Laerm;56815;52.320;4.858;2023-07-31T00:18:49;49.83;34.91;70.08;;
69609;Laerm;56815;52.320;4.858;2023-07-31T00:18:59;44.10;35.99;58.48;;
69609;Laerm;56815;52.320;4.858;2023-07-31T00:19:10;44.05;37.30;61.38;;
69609;Laerm;56815;52.320;4.858;2023-07-31T00:19:20;51.49;37.25;68.72;;
69609;Laerm;56815;52.320;4.858;2023-07-31T00:19:30;46.09;36.67;65.21;;
69609;Laerm;56815;52.320;4.858;2023-07-31T00:19:40;47.05;36.83;66.54;;
69609;Laerm;56815;52.320;4.858;2023-07-31T00:19:51;45.94;37.47;65.74;;
69609;Laerm;56815;52.320;4.858;2023-07-31T00:20:01;50.19;40.15;63.36;;
69609;Laerm;56815;52.320;4.858;2023-07-31T00:20:12;47.41;39.97;67.19;;
69609;Laerm;56815;52.320;4.858;2023-07-31T00:20:22;46.90;39.76;63.12;;
69609;Laerm;56815;52.320;4.858;2023-07-31T00:20:33;46.48;40.40;64.95;;
69609;Laerm;56815;52.320;4.858;2023-07-31T00:20:43;47.95;41.01;62.90;;
69609;Laerm;56815;52.320;4.858;2023-07-31T00:20:53;47.84;42.72;64.16;;
69609;Laerm;56815;52.320;4.858;2023-07-31T00:21:03;50.50;44.28;67.89;;
69609;Laerm;56815;52.320;4.858;2023-07-31T00:21:14;51.64;44.15;69.57;;
69609;Laerm;56815;52.320;4.858;2023-07-31T00:21:24;47.99;44.46;59.85;;
69609;Laerm;56815;52.320;4.858;2023-07-31T00:21:34;50.13;45.68;63.24;;
69609;Laerm;56815;52.320;4.858;2023-07-31T00:21:44;52.51;47.99;66.05;;
69609;Laerm;56815;52.320;4.858;2023-07-31T00:21:55;53.88;49.63;67.00;;
69609;Laerm;56815;52.320;4.858;2023-07-31T00:22:05;55.65;52.25;70.11;;
69609;Laerm;56815;52.320;4.858;2023-07-31T00:22:15;57.84;54.74;68.56;;
69609;Laerm;56815;52.320;4.858;2023-07-31T00:22:26;58.83;56.86;65.04;;
69609;Laerm;56815;52.320;4.858;2023-07-31T00:22:36;59.54;57.50;67.68;;
69609;Laerm;56815;52.320;4.858;2023-07-31T00:22:46;58.99;55.83;67.93;;
69609;Laerm;56815;52.320;4.858;2023-07-31T00:22:57;57.30;53.43;68.74;;
69609;Laerm;56815;52.320;4.858;2023-07-31T00:23:07;56.66;52.59;70.06;;
69609;Laerm;56815;52.320;4.858;2023-07-31T00:23:20;55.94;50.55;67.31;;
69609;Laerm;56815;52.320;4.858;2023-07-31T00:23:31;55.87;48.97;69.08;;
69609;Laerm;56815;52.320;4.858;2023-07-31T00:23:41;53.82;47.28;65.85;;
69609;Laerm;56815;52.320;4.858;2023-07-31T00:23:51;54.92;45.14;67.41;;
69609;Laerm;56815;52.320;4.858;2023-07-31T00:24:01;54.38;44.01;69.71;;
69609;Laerm;56815;52.320;4.858;2023-07-31T00:24:12;54.20;42.21;67.56;;
69609;Laerm;56815;52.320;4.858;2023-07-31T00:24:22;53.83;42.17;70.11;;
69609;Laerm;56815;52.320;4.858;2023-07-31T00:24:32;52.54;42.14;64.89;;
69609;Laerm;56815;52.320;4.858;2023-07-31T00:24:42;54.28;41.92;69.47;;
69609;Laerm;56815;52.320;4.858;2023-07-31T00:24:53;52.28;40.72;67.85;;
69609;Laerm;56815;52.320;4.858;2023-07-31T00:25:03;52.63;39.81;67.07;;
69609;Laerm;56815;52.320;4.858;2023-07-31T00:25:14;50.90;39.90;65.61;;
69609;Laerm;56815;52.320;4.858;2023-07-31T00:25:24;51.63;41.92;66.51;;
69609;Laerm;56815;52.320;4.858;2023-07-31T00:25:34;51.09;40.57;64.99;;
69609;Laerm;56815;52.320;4.858;2023-07-31T00:25:44;51.13;40.98;67.46;;
69609;Laerm;56815;52.320;4.858;2023-07-31T00:25:55;52.25;41.45;67.53;;
69609;Laerm;56815;52.320;4.858;2023-07-31T00:26:05;51.67;42.03;67.38;;
69609;Laerm;56815;52.320;4.858;2023-07-31T00:26:15;52.28;40.91;68.16;;
69609;Laerm;56815;52.320;4.858;2023-07-31T00:26:25;50.19;39.87;69.20;;
69609;Laerm;56815;52.320;4.858;2023-07-31T00:26:36;50.89;41.15;64.19;;
69609;Laerm;56815;52.320;4.858;2023-07-31T00:26:46;51.35;41.26;69.52;;
69609;Laerm;56815;52.320;4.858;2023-07-31T00:26:56;50.75;39.64;66.96;;
69609;Laerm;56815;52.320;4.858;2023-07-31T00:27:06;50.52;38.91;65.42;;
69609;Laerm;56815;52.320;4.858;2023-07-31T00:27:17;49.90;38.35;66.88;;
69609;Laerm;56815;52.320;4.858;2023-07-31T00:27:27;50.56;38.43;66.70;;
69609;Laerm;56815;52.320;4.858;2023-07-31T00:27:37;49.59;37.56;66.77;;
69609;Laerm;56815;52.320;4.858;2023-07-31T00:27:48;51.38;38.29;66.24;;
69609;Laerm;56815;52.320;4.858;2023-07-31T00:27:58;50.15;37.49;65.77;;
69609;Laerm;56815;52.320;4.858;2023-07-31T00:28:08;48.76;37.34;65.37;;
69609;Laerm;56815;52.320;4.858;2023-07-31T00:28:18;51.51;37.58;65.91;;
69609;Laerm;56815;52.320;4.858;2023-07-31T00:28:29;48.56;37.71;65.47;;
69609;Laerm;56815;52.320;4.858;2023-07-31T00:28:39;51.48;38.51;67.22;;
69609;Laerm;56815;52.320;4.858;2023-07-31T00:28:49;48.93;38.33;66.01;;
69609;Laerm;56815;52.320;4.858;2023-07-31T00:28:59;50.70;38.02;68.40;;
69609;Laerm;56815;52.320;4.858;2023-07-31T00:29:10;46.76;37.64;63.13;;
69609;Laerm;56815;52.320;4.858;2023-07-31T00:29:20;49.23;36.40;67.34;;
69609;Laerm;56815;52.320;4.858;2023-07-31T00:29:30;45.91;36.35;59.41;;
69609;Laerm;56815;52.320;4.858;2023-07-31T00:29:41;47.65;35.24;61.78;;
69609;Laerm;56815;52.320;4.858;2023-07-31T00:29:51;48.39;36.51;63.98;;
69609;Laerm;56815;52.320;4.858;2023-07-31T00:30:01;51.36;35.68;71.70;;
69609;Laerm;56815;52.320;4.858;2023-07-31T00:30:12;49.17;35.32;65.42;;
69609;Laerm;56815;52.320;4.858;2023-07-31T00:30:22;47.80;34.88;64.92;;
69609;Laerm;56815;52.320;4.858;2023-07-31T00:30:32;46.10;35.45;64.03;;
69609;Laerm;56815;52.320;4.858;2023-07-31T00:30:45;48.01;35.70;68.39;;
69609;Laerm;56815;52.320;4.858;2023-07-31T00:30:55;45.61;35.85;63.86;;
69609;Laerm;56815;52.320;4.858;2023-07-31T00:31:05;47.97;35.35;61.42;;
69609;Laerm;56815;52.320;4.858;2023-07-31T00:31:16;49.43;35.85;68.09;;
69609;Laerm;56815;52.320;4.858;2023-07-31T00:31:26;45.42;35.51;61.31;;
69609;Laerm;56815;52.320;4.858;2023-07-31T00:31:36;46.33;35.54;63.85;;
69609;Laerm;56815;52.320;4.858;2023-07-31T00:31:46;46.71;34.71;64.16;;
69609;Laerm;56815;52.320;4.858;2023-07-31T00:31:57;46.81;35.19;66.39;;
69609;Laerm;56815;52.320;4.858;2023-07-31T00:32:07;50.35;35.32;65.61;;
69609;Laerm;56815;52.320;4.858;2023-07-31T00:32:17;47.97;35.17;69.81;;
69609;Laerm;56815;52.320;4.858;2023-07-31T00:32:27;47.58;34.23;64.54;;
69609;Laerm;56815;52.320;4.858;2023-07-31T00:32:38;48.36;34.61;64.16;;
69609;Laerm;56815;52.320;4.858;2023-07-31T00:32:48;47.95;34.25;65.56;;
69609;Laerm;56815;52.320;4.858;2023-07-31T00:32:58;44.22;34.58;62.92;;
69609;Laerm;56815;52.320;4.858;2023-07-31T00:33:09;47.56;34.16;63.42;;
69609;Laerm;56815;52.320;4.858;2023-07-31T00:33:19;48.41;34.65;67.17;;
69609;Laerm;56815;52.320;4.858;2023-07-31T00:33:30;50.83;34.64;70.90;;
69609;Laerm;56815;52.320;4.858;2023-07-31T00:33:41;45.44;34.84;66.72;;
69609;Laerm;56815;52.320;4.858;2023-07-31T00:33:51;48.15;34.37;65.94;;
69609;Laerm;56815;52.320;4.858;2023-07-31T00:34:01;45.70;34.56;62.09;;
69609;Laerm;56815;52.320;4.858;2023-07-31T00:34:12;45.91;35.50;63.04;;
69609;Laerm;56815;52.320;4.858;2023-07-31T00:34:22;47.45;36.48;64.69;;
69609;Laerm;56815;52.320;4.858;2023-07-31T00:34:32;47.43;35.69;68.39;;
69609;Laerm;56815;52.320;4.858;2023-07-31T00:34:43;49.80;37.02;70.74;;
69609;Laerm;56815;52.320;4.858;2023-07-31T00:34:53;44.95;37.78;62.65;;
69609;Laerm;56815;52.320;4.858;2023-07-31T00:35:03;46.25;38.01;62.83;;
69609;Laerm;56815;52.320;4.858;2023-07-31T00:35:14;46.16;37.90;64.17;;
69609;Laerm;56815;52.320;4.858;2023-07-31T00:35:24;48.29;39.06;68.76;;
69609;Laerm;56815;52.320;4.858;2023-07-31T00:35:34;48.75;40.01;65.56;;
69609;Laerm;56815;52.320;4.858;2023-07-31T00:35:44;47.87;42.03;62.79;;
69609;Laerm;56815;52.320;4.858;2023-07-31T00:35:55;49.88;42.47;67.03;;
69609;Laerm;56815;52.320;4.858;2023-07-31T00:36:08;49.89;45.13;65.53;;
69609;Laerm;56815;52.320;4.858;2023-07-31T00:36:18;49.34;41.89;66.62;;
69609;Laerm;56815;52.320;4.858;2023-07-31T00:36:29;47.75;40.37;66.19;;
69609;Laerm;56815;52.320;4.858;2023-07-31T00:36:39;46.61;38.90;65.16;;
69609;Laerm;56815;52.320;4.858;2023-07-31T00:36:49;45.99;38.18;65.22;;
69609;Laerm;56815;52.320;4.858;2023-07-31T00:36:59;47.60;38.09;64.92;;
69609;Laerm;56815;52.320;4.858;2023-07-31T00:37:10;46.33;38.95;65.55;;
69609;Laerm;56815;52.320;4.858;2023-07-31T00:37:20;46.29;39.33;64.90;;
69609;Laerm;56815;52.320;4.858;2023-07-31T00:37:30;49.61;39.53;69.93;;
69609;Laerm;56815;52.320;4.858;2023-07-31T00:37:40;44.93;39.48;56.91;;
69609;Laerm;56815;52.320;4.858;2023-07-31T00:37:51;46.86;38.57;62.95;;
69609;Laerm;56815;52.320;4.858;2023-07-31T00:38:01;52.45;37.68;72.89;;
69609;Laerm;56815;52.320;4.858;2023-07-31T00:38:11;47.82;37.13;66.16;;
69609;Laerm;56815;52.320;4.858;2023-07-31T00:38:22;47.94;36.38;68.60;;
69609;Laerm;56815;52.320;4.858;2023-07-31T00:38:32;46.69;35.34;64.93;;
69609;Laerm;56815;52.320;4.858;2023-07-31T00:38:42;44.38;35.78;61.01;;
69609;Laerm;56815;52.320;4.858;2023-07-31T00:38:52;44.88;35.21;61.60;;
69609;Laerm;56815;52.320;4.858;2023-07-31T00:39:03;47.08;35.12;65.37;;
69609;Laerm;56815;52.320;4.858;2023-07-31T00:39:14;47.79;35.71;64.34;;
69609;Laerm;56815;52.320;4.858;2023-07-31T00:39:25;42.66;35.07;58.55;;
69609;Laerm;56815;52.320;4.858;2023-07-31T00:39:35;48.08;35.22;66.70;;
69609;Laerm;56815;52.320;4.858;2023-07-31T00:39:46;46.49;34.85;67.16;;
69609;Laerm;56815;52.320;4.858;2023-07-31T00:39:56;44.39;34.46;59.85;;
69609;Laerm;56815;52.320;4.858;2023-07-31T00:40:06;48.31;35.70;63.04;;
69609;Laerm;56815;52.320;4.858;2023-07-31T00:40:17;45.79;35.55;65.68;;
69609;Laerm;56815;52.320;4.858;2023-07-31T00:40:27;44.00;34.75;62.27;;
69609;Laerm;56815;52.320;4.858;2023-07-31T00:40:37;42.48;35.76;58.92;;
69609;Laerm;56815;52.320;4.858;2023-07-31T00:40:48;43.95;37.39;62.29;;
69609;Laerm;56815;52.320;4.858;2023-07-31T00:40:58;49.57;40.19;69.63;;
69609;Laerm;56815;52.320;4.858;2023-07-31T00:41:08;46.87;39.51;64.69;;
69609;Laerm;56815;52.320;4.858;2023-07-31T00:41:19;48.71;39.02;70.94;;
69609;Laerm;56815;52.320;4.858;2023-07-31T00:41:29;46.66;38.70;67.38;;
69609;Laerm;56815;52.320;4.858;2023-07-31T00:41:39;44.96;39.69;56.47;;
69609;Laerm;56815;52.320;4.858;2023-07-31T00:41:49;46.60;38.76;62.52;;
69609;Laerm;56815;52.320;4.858;2023-07-31T00:42:00;48.41;37.88;66.71;;
69609;Laerm;56815;52.320;4.858;2023-07-31T00:42:10;46.02;37.38;61.81;;
69609;Laerm;56815;52.320;4.858;2023-07-31T00:42:20;44.89;37.24;61.54;;
69609;Laerm;56815;52.320;4.858;2023-07-31T00:42:31;49.24;38.17;70.15;;
69609;Laerm;56815;52.320;4.858;2023-07-31T00:42:41;47.14;36.91;66.49;;
69609;Laerm;56815;52.320;4.858;2023-07-31T00:42:51;47.38;36.96;62.98;;
69609;Laerm;56815;52.320;4.858;2023-07-31T00:43:02;45.11;36.52;62.25;;
69609;Laerm;56815;52.320;4.858;2023-07-31T00:43:13;44.95;35.59;61.39;;
69609;Laerm;56815;52.320;4.858;2023-07-31T00:43:24;44.10;36.67;60.99;;
69609;Laerm;56815;52.320;4.858;2023-07-31T00:43:34;47.40;35.01;65.27;;
69609;Laerm;56815;52.320;4.858;2023-07-31T00:43:44;47.13;36.26;66.33;;
69609;Laerm;56815;52.320;4.858;2023-07-31T00:43:58;46.26;36.05;64.74;;
69609;Laerm;56815;52.320;4.858;2023-07-31T00:44:08;42.23;35.55;60.39;;
69609;Laerm;56815;52.320;4.858;2023-07-31T00:44:18;45.36;34.58;62.88;;
69609;Laerm;56815;52.320;4.858;2023-07-31T00:44:28;44.96;34.79;64.45;;
69609;Laerm;56815;52.320;4.858;2023-07-31T00:44:39;42.53;34.90;58.80;;
69609;Laerm;56815;52.320;4.858;2023-07-31T00:44:49;41.75;34.81;54.71;;
69609;Laerm;56815;52.320;4.858;2023-07-31T00:44:59;48.28;35.61;71.22;;
69609;Laerm;56815;52.320;4.858;2023-07-31T00:45:09;46.68;35.43;67.01;;
69609;Laerm;56815;52.320;4.858;2023-07-31T00:45:19;46.83;37.40;63.19;;
69609;Laerm;56815;52.320;4.858;2023-07-31T00:45:33;45.79;36.24;64.31;;
69609;Laerm;56815;52.320;4.858;2023-07-31T00:45:43;44.04;36.50;65.15;;
69609;Laerm;56815;52.320;4.858;2023-07-31T00:45:53;45.16;35.30;63.72;;
69609;Laerm;56815;52.320;4.858;2023-07-31T00:46:04;47.15;35.82;67.40;;
69609;Laerm;56815;52.320;4.858;2023-07-31T00:46:14;45.26;36.68;62.36;;
69609;Laerm;56815;52.320;4.858;2023-07-31T00:46:24;46.74;37.67;65.28;;
69609;Laerm;56815;52.320;4.858;2023-07-31T00:46:35;45.62;37.59;59.78;;
69609;Laerm;56815;52.320;4.858;2023-07-31T00:46:45;46.87;37.04;64.95;;
69609;Laerm;56815;52.320;4.858;2023-07-31T00:46:55;45.60;37.73;65.78;;
69609;Laerm;56815;52.320;4.858;2023-07-31T00:47:06;45.22;37.90;61.32;;
69609;Laerm;56815;52.320;4.858;2023-07-31T00:47:16;47.13;37.30;65.93;;
69609;Laerm;56815;52.320;4.858;2023-07-31T00:47:26;49.35;38.03;65.19;;
69609;Laerm;56815;52.320;4.858;2023-07-31T00:47:36;44.86;37.73;66.01;;
69609;Laerm;56815;52.320;4.858;2023-07-31T00:47:47;45.01;37.06;63.43;;
69609;Laerm;56815;52.320;4.858;2023-07-31T00:47:57;42.50;37.36;57.59;;
69609;Laerm;56815;52.320;4.858;2023-07-31T00:48:08;44.44;36.91;63.06;;
69609;Laerm;56815;52.320;4.858;2023-07-31T00:48:18;47.50;36.78;67.37;;
69609;Laerm;56815;52.320;4.858;2023-07-31T00:48:28;43.85;36.13;63.99;;
69609;Laerm;56815;52.320;4.858;2023-07-31T00:48:39;44.92;36.00;67.01;;
69609;Laerm;56815;52.320;4.858;2023-07-31T00:48:50;42.40;35.59;58.79;;
69609;Laerm;56815;52.320;4.858;2023-07-31T00:49:00;43.55;35.20;61.82;;
69609;Laerm;56815;52.320;4.858;2023-07-31T00:49:11;46.16;35.66;64.49;;
69609;Laerm;56815;52.320;4.858;2023-07-31T00:49:22;43.18;36.04;61.98;;
69609;Laerm;56815;52.320;4.858;2023-07-31T00:49:32;44.69;37.08;63.23;;
69609;Laerm;56815;52.320;4.858;2023-07-31T00:49:43;45.00;38.96;59.30;;
69609;Laerm;56815;52.320;4.858;2023-07-31T00:49:53;47.13;38.99;65.29;;
69609;Laerm;56815;52.320;4.858;2023-07-31T00:50:04;44.98;38.47;63.80;;
69609;Laerm;56815;52.320;4.858;2023-07-31T00:50:14;45.44;37.23;63.81;;
69609;Laerm;56815;52.320;4.858;2023-07-31T00:50:25;43.85;37.32;60.54;;
69609;Laerm;56815;52.320;4.858;2023-07-31T00:50:35;45.06;37.14;66.34;;
69609;Laerm;56815;52.320;4.858;2023-07-31T00:50:49;46.42;38.21;66.81;;
69609;Laerm;56815;52.320;4.858;2023-07-31T00:51:00;47.99;39.64;67.12;;
69609;Laerm;56815;52.320;4.858;2023-07-31T00:51:11;46.84;39.88;66.50;;
69609;Laerm;56815;52.320;4.858;2023-07-31T00:51:21;44.88;40.55;59.70;;
69609;Laerm;56815;52.320;4.858;2023-07-31T00:51:32;43.74;39.61;54.19;;
69609;Laerm;56815;52.320;4.858;2023-07-31T00:51:42;46.97;40.43;68.17;;
69609;Laerm;56815;52.320;4.858;2023-07-31T00:51:52;46.47;40.75;60.51;;
69609;Laerm;56815;52.320;4.858;2023-07-31T00:52:03;47.68;40.20;66.96;;
69609;Laerm;56815;52.320;4.858;2023-07-31T00:52:13;49.14;40.36;68.35;;
69609;Laerm;56815;52.320;4.858;2023-07-31T00:52:24;43.43;38.06;58.60;;
69609;Laerm;56815;52.320;4.858;2023-07-31T00:52:34;47.86;38.21;69.77;;
69609;Laerm;56815;52.320;4.858;2023-07-31T00:52:45;47.44;36.64;66.35;;
69609;Laerm;56815;52.320;4.858;2023-07-31T00:52:55;43.70;36.52;62.07;;
69609;Laerm;56815;52.320;4.858;2023-07-31T00:53:05;43.43;37.07;64.66;;
69609;Laerm;56815;52.320;4.858;2023-07-31T00:53:16;43.96;38.18;57.00;;
69609;Laerm;56815;52.320;4.858;2023-07-31T00:53:26;49.62;38.53;70.98;;
69609;Laerm;56815;52.320;4.858;2023-07-31T00:53:37;45.08;37.93;62.02;;
69609;Laerm;56815;52.320;4.858;2023-07-31T00:53:47;48.20;37.10;66.91;;
69609;Laerm;56815;52.320;4.858;2023-07-31T00:53:58;44.27;37.62;61.67;;
69609;Laerm;56815;52.320;4.858;2023-07-31T00:54:08;43.22;39.02;55.77;;
69609;Laerm;56815;52.320;4.858;2023-07-31T00:54:19;48.21;39.83;63.74;;
69609;Laerm;56815;52.320;4.858;2023-07-31T00:54:29;46.10;38.98;64.82;;
69609;Laerm;56815;52.320;4.858;2023-07-31T00:54:39;43.82;39.31;61.45;;
69609;Laerm;56815;52.320;4.858;2023-07-31T00:54:50;42.59;38.80;53.18;;
69609;Laerm;56815;52.320;4.858;2023-07-31T00:55:00;44.89;38.08;61.77;;
69609;Laerm;56815;52.320;4.858;2023-07-31T00:55:11;42.92;38.04;53.07;;
69609;Laerm;56815;52.320;4.858;2023-07-31T00:55:21;43.68;37.17;57.83;;
69609;Laerm;56815;52.320;4.858;2023-07-31T00:55:31;45.59;37.28;62.77;;
69609;Laerm;56815;52.320;4.858;2023-07-31T00:55:42;41.94;35.73;55.57;;
69609;Laerm;56815;52.320;4.858;2023-07-31T00:55:52;41.60;35.82;53.52;;
69609;Laerm;56815;52.320;4.858;2023-07-31T00:56:03;47.95;36.12;69.42;;
69609;Laerm;56815;52.320;4.858;2023-07-31T00:56:14;48.52;38.28;65.75;;
69609;Laerm;56815;52.320;4.858;2023-07-31T00:56:24;46.02;38.75;62.78;;
69609;Laerm;56815;52.320;4.858;2023-07-31T00:56:35;46.50;39.29;63.00;;
69609;Laerm;56815;52.320;4.858;2023-07-31T00:56:48;49.95;39.29;74.20;;
69609;Laerm;56815;52.320;4.858;2023-07-31T00:56:59;47.70;37.31;65.62;;
69609;Laerm;56815;52.320;4.858;2023-07-31T00:57:10;44.20;34.98;66.14;;
69609;Laerm;56815;52.320;4.858;2023-07-31T00:57:20;43.21;34.21;61.38;;
69609;Laerm;56815;52.320;4.858;2023-07-31T00:57:31;46.79;34.47;68.24;;
69609;Laerm;56815;52.320;4.858;2023-07-31T00:57:42;43.88;34.29;62.27;;
69609;Laerm;56815;52.320;4.858;2023-07-31T00:57:52;45.75;34.23;64.78;;
69609;Laerm;56815;52.320;4.858;2023-07-31T00:58:05;42.62;33.81;61.04;;
69609;Laerm;56815;52.320;4.858;2023-07-31T00:58:15;49.64;34.15;73.59;;